Time;durP1;ratioP1;P1;durP2;ratioP2;P2;SDS_P1;SDS_P2;PMS_P1;PMS_P2;Temp;Humidity;BMP_temperature;BMP_pressure;BME280_temperature;BME280_humidity;BME280_pressure;Samples;Min_cycle;Max_cycle;Signal;HPM_P1;HPM_P2
2022/09/01 00:02:19;;;;;;;9.03;8.13;;;20.70;99.90;;;;;;5009567;28;20428;-76
2022/09/01 00:04:46;;;;;;;6.67;6.07;;;20.70;99.90;;;;;;5011144;28;20876;-76
2022/09/01 00:07:13;;;;;;;9.07;7.30;;;20.70;99.90;;;;;;5012308;28;20223;-75
2022/09/01 00:09:39;;;;;;;8.87;7.70;;;20.70;99.90;;;;;;5011850;28;20549;-75
2022/09/01 00:12:08;;;;;;;8.03;6.53;;;20.60;99.90;;;;;;5014090;28;20485;-76
2022/09/01 00:14:38;;;;;;;7.17;6.57;;;20.60;99.90;;;;;;5015495;28;20489;-76
2022/09/01 00:17:07;;;;;;;9.47;7.03;;;20.60;99.90;;;;;;5013858;28;20447;-75
2022/09/01 00:19:34;;;;;;;5.97;5.47;;;20.60;99.90;;;;;;5012094;28;20439;-75
2022/09/01 00:22:00;;;;;;;7.73;6.23;;;20.60;99.90;;;;;;5011998;28;20459;-75
2022/09/01 00:24:26;;;;;;;8.70;7.00;;;20.60;99.90;;;;;;5009371;28;20534;-75
2022/09/01 00:26:52;;;;;;;7.87;6.67;;;20.50;99.90;;;;;;5011722;28;20454;-75
2022/09/01 00:29:18;;;;;;;7.20;6.13;;;20.50;99.90;;;;;;5011820;28;20435;-76
2022/09/01 00:31:44;;;;;;;6.90;6.20;;;20.50;99.90;;;;;;5012758;28;20443;-75
2022/09/01 00:34:10;;;;;;;9.50;5.90;;;20.50;99.90;;;;;;5010561;28;20211;-75
2022/09/01 00:36:36;;;;;;;6.97;6.23;;;20.50;99.90;;;;;;5016968;28;20220;-75
2022/09/01 00:39:03;;;;;;;8.10;6.33;;;20.40;99.90;;;;;;5012822;28;20519;-75
2022/09/01 00:41:31;;;;;;;7.40;5.83;;;20.40;99.90;;;;;;5019166;28;20286;-76
2022/09/01 00:44:00;;;;;;;6.77;6.13;;;20.40;99.90;;;;;;5016773;28;20455;-76
2022/09/01 00:46:30;;;;;;;6.67;6.07;;;20.30;99.90;;;;;;5018886;28;20440;-75
2022/09/01 00:49:14;;;;;;;6.07;5.57;;;20.30;99.90;;;;;;5019745;28;20835;-75
2022/09/01 00:51:43;;;;;;;7.03;6.40;;;20.30;99.90;;;;;;5015013;28;20439;-75
2022/09/01 00:54:12;;;;;;;6.53;5.80;;;20.20;99.90;;;;;;5016524;28;20469;-75
2022/09/01 00:56:40;;;;;;;6.87;6.27;;;20.20;99.90;;;;;;5016364;28;20442;-75
2022/09/01 00:59:08;;;;;;;7.40;6.67;;;20.20;99.90;;;;;;5017563;28;20466;-76
2022/09/01 01:01:35;;;;;;;9.47;6.33;;;20.20;99.90;;;;;;5015515;28;20463;-76
2022/09/01 01:04:05;;;;;;;6.53;5.83;;;20.20;99.90;;;;;;5019662;28;20885;-77
2022/09/01 01:06:32;;;;;;;6.67;5.97;;;20.20;99.90;;;;;;5022596;28;20431;-76
2022/09/01 01:08:59;;;;;;;7.23;6.53;;;20.20;99.90;;;;;;5016419;28;20485;-76
2022/09/01 01:11:31;;;;;;;6.93;6.23;;;20.10;99.90;;;;;;5013564;28;20568;-76
2022/09/01 01:14:10;;;;;;;9.93;6.97;;;20.10;99.90;;;;;;5015002;28;20467;-77
2022/09/01 01:16:43;;;;;;;8.03;5.90;;;20.00;99.90;;;;;;5015709;28;20468;-76
2022/09/01 01:23:00;;;;;;;8.80;6.13;;;20.00;99.90;;;;;;5013876;28;20978;-76
2022/09/01 01:25:27;;;;;;;6.00;5.50;;;20.00;99.90;;;;;;5016497;28;20532;-75
2022/09/01 01:28:04;;;;;;;8.10;6.07;;;19.90;99.90;;;;;;5022131;28;20439;-76
2022/09/01 01:30:35;;;;;;;6.27;5.67;;;19.90;99.90;;;;;;5017683;28;20430;-75
2022/09/01 01:33:03;;;;;;;12.70;6.50;;;19.90;99.90;;;;;;5008275;28;20916;-76
2022/09/01 01:35:30;;;;;;;7.50;6.80;;;19.90;99.90;;;;;;5012771;28;20527;-77
2022/09/01 01:37:57;;;;;;;6.73;6.03;;;19.90;99.90;;;;;;5014129;28;20575;-77
2022/09/01 01:40:23;;;;;;;7.00;6.30;;;19.90;99.90;;;;;;5013890;28;20569;-77
2022/09/01 01:42:52;;;;;;;7.07;6.37;;;19.80;99.90;;;;;;5015470;28;20557;-77
2022/09/01 01:45:21;;;;;;;6.80;6.10;;;19.80;99.90;;;;;;5012575;28;20812;-77
2022/09/01 01:47:55;;;;;;;8.00;7.20;;;19.80;99.90;;;;;;5015314;28;20948;-77
2022/09/01 01:50:28;;;;;;;7.10;6.40;;;19.80;99.90;;;;;;5016693;28;20443;-76
2022/09/01 01:52:56;;;;;;;7.03;6.40;;;19.80;99.90;;;;;;5016867;28;20504;-75
2022/09/01 01:55:26;;;;;;;7.50;6.50;;;19.70;99.90;;;;;;5018049;28;20573;-75
2022/09/01 01:57:52;;;;;;;6.93;6.23;;;19.70;99.90;;;;;;5013258;28;21444;-74
2022/09/01 02:00:21;;;;;;;7.77;6.10;;;19.70;99.90;;;;;;5016060;28;20533;-76
2022/09/01 02:02:51;;;;;;;6.60;5.70;;;19.60;99.90;;;;;;5016679;28;20343;-76
2022/09/01 02:05:30;;;;;;;6.50;5.90;;;19.60;99.90;;;;;;5015783;28;20427;-77
2022/09/01 02:08:02;;;;;;;10.60;6.67;;;19.60;99.90;;;;;;5018026;28;20919;-76
2022/09/01 02:10:32;;;;;;;7.33;6.03;;;19.60;99.90;;;;;;5017840;28;20451;-76
2022/09/01 02:13:06;;;;;;;6.47;5.87;;;19.60;99.90;;;;;;5014111;28;20544;-77
2022/09/01 02:15:34;;;;;;;7.80;6.50;;;19.60;99.90;;;;;;5015583;28;20470;-77
2022/09/01 02:18:00;;;;;;;7.40;6.70;;;19.50;99.90;;;;;;5013117;28;20806;-76
2022/09/01 02:20:31;;;;;;;6.83;6.03;;;19.50;99.90;;;;;;5016386;28;20509;-76
2022/09/01 02:22:57;;;;;;;7.33;6.63;;;19.50;99.90;;;;;;5015945;28;20498;-77
2022/09/01 02:25:23;;;;;;;7.23;6.57;;;19.50;99.90;;;;;;5015657;28;20443;-77
2022/09/01 02:27:54;;;;;;;6.77;6.17;;;19.40;99.90;;;;;;5018841;28;20439;-77
2022/09/01 02:30:25;;;;;;;7.50;6.67;;;19.50;99.90;;;;;;5018845;28;20812;-77
2022/09/01 02:32:50;;;;;;;12.43;7.67;;;19.40;99.90;;;;;;5014248;28;20468;-76
2022/09/01 02:35:17;;;;;;;7.77;7.00;;;19.40;99.90;;;;;;5016231;28;20447;-76
2022/09/01 02:37:43;;;;;;;6.47;5.80;;;19.40;99.90;;;;;;4998603;28;20197;-76
2022/09/01 02:40:09;;;;;;;8.00;7.10;;;19.40;99.90;;;;;;5010999;28;20454;-77
2022/09/01 02:42:39;;;;;;;8.07;6.97;;;19.40;99.90;;;;;;5016385;28;20697;-76
2022/09/01 02:45:10;;;;;;;8.50;7.30;;;19.40;99.90;;;;;;5015390;28;20181;-76
2022/09/01 02:47:40;;;;;;;9.40;7.70;;;19.30;99.90;;;;;;5013398;28;20434;-76
2022/09/01 02:50:12;;;;;;;6.73;6.13;;;19.30;99.90;;;;;;5013380;28;20434;-76
2022/09/01 02:52:39;;;;;;;8.70;6.80;;;19.30;99.90;;;;;;5016431;28;20439;-76
2022/09/01 02:55:06;;;;;;;8.00;7.20;;;19.20;99.90;;;;;;5016100;28;20423;-76
2022/09/01 02:57:33;;;;;;;8.77;6.60;;;19.20;99.90;;;;;;5016847;28;20564;-76
2022/09/01 02:59:59;;;;;;;7.77;6.60;;;19.20;99.90;;;;;;5016646;28;20442;-76
2022/09/01 03:02:27;;;;;;;7.40;6.70;;;19.20;99.90;;;;;;5018339;28;20439;-76
2022/09/01 03:04:54;;;;;;;12.17;6.70;;;19.10;99.90;;;;;;5017388;28;20200;-76
2022/09/01 03:07:22;;;;;;;8.73;7.27;;;19.10;99.90;;;;;;5013973;28;20431;-76
2022/09/01 03:09:48;;;;;;;7.63;6.93;;;19.10;99.90;;;;;;5014594;28;20486;-76
2022/09/01 03:12:14;;;;;;;7.80;7.10;;;19.10;99.90;;;;;;5015691;28;20956;-76
2022/09/01 03:14:40;;;;;;;8.70;7.90;;;19.00;99.90;;;;;;5016998;28;20459;-75
2022/09/01 03:17:05;;;;;;;7.20;6.50;;;19.00;99.90;;;;;;4999528;28;20521;-76
2022/09/01 03:19:43;;;;;;;7.60;6.87;;;19.00;99.90;;;;;;5013252;28;20271;-77
2022/09/01 03:22:08;;;;;;;8.10;7.30;;;18.90;99.90;;;;;;5014343;28;20209;-77
2022/09/01 03:24:35;;;;;;;9.43;7.60;;;18.90;99.90;;;;;;5002419;28;20474;-77
2022/09/01 03:27:00;;;;;;;8.13;7.33;;;18.90;99.90;;;;;;5016065;28;20192;-76
2022/09/01 03:29:26;;;;;;;8.03;7.33;;;18.90;99.90;;;;;;5014760;28;20492;-76
2022/09/01 03:31:51;;;;;;;7.90;7.17;;;18.90;99.90;;;;;;5017002;28;20223;-76
2022/09/01 03:34:22;;;;;;;9.73;7.33;;;18.80;99.90;;;;;;5013319;28;20284;-76
2022/09/01 03:36:53;;;;;;;7.67;6.87;;;18.80;99.90;;;;;;5012600;28;20958;-76
2022/09/01 03:39:18;;;;;;;8.80;7.57;;;18.80;99.90;;;;;;5014958;28;20446;-77
2022/09/01 03:41:44;;;;;;;7.80;7.10;;;18.80;99.90;;;;;;5013917;28;20526;-77
2022/09/01 03:44:15;;;;;;;8.13;7.30;;;18.80;99.90;;;;;;4998688;28;20283;-76
2022/09/01 03:46:41;;;;;;;8.03;7.23;;;18.70;99.90;;;;;;5013841;28;20284;-76
2022/09/01 03:49:11;;;;;;;9.13;7.50;;;18.70;99.90;;;;;;5013119;28;20723;-76
2022/09/01 03:51:37;;;;;;;8.97;7.53;;;18.70;99.90;;;;;;5009112;28;20446;-76
2022/09/01 03:54:03;;;;;;;7.57;6.87;;;18.70;99.90;;;;;;5014332;28;20546;-76
2022/09/01 03:56:29;;;;;;;8.90;8.10;;;18.70;99.90;;;;;;5013714;28;20543;-76
2022/09/01 03:58:57;;;;;;;8.83;7.90;;;18.60;99.90;;;;;;5016593;28;20448;-77
2022/09/01 04:01:25;;;;;;;8.60;7.77;;;18.70;99.90;;;;;;5020941;28;20208;-77
2022/09/01 04:03:51;;;;;;;8.63;7.93;;;18.70;99.90;;;;;;5015790;28;20569;-77
2022/09/01 04:06:18;;;;;;;8.90;7.93;;;18.70;99.90;;;;;;5015692;28;20525;-77
2022/09/01 04:08:45;;;;;;;10.50;8.30;;;18.70;99.90;;;;;;5017071;28;20522;-76
2022/09/01 04:11:17;;;;;;;8.73;7.83;;;18.70;99.90;;;;;;5013793;28;20448;-75
2022/09/01 04:13:43;;;;;;;10.83;9.20;;;18.70;99.90;;;;;;5018715;28;20467;-75
2022/09/01 04:19:23;;;;;;;9.90;8.20;;;18.60;99.90;;;;;;5014323;28;20222;-75
2022/09/01 04:21:52;;;;;;;8.57;7.77;;;18.70;99.90;;;;;;5015558;28;20830;-75
2022/09/01 04:24:19;;;;;;;8.57;7.77;;;18.60;99.90;;;;;;5011549;28;20549;-75
2022/09/01 04:26:47;;;;;;;10.00;9.00;;;18.60;99.90;;;;;;5012957;28;20470;-75
2022/09/01 04:29:14;;;;;;;9.77;8.77;;;18.60;99.90;;;;;;5014236;28;20879;-76
2022/09/01 04:31:41;;;;;;;9.53;8.63;;;18.60;99.90;;;;;;5015435;28;20451;-74
2022/09/01 04:34:12;;;;;;;8.47;7.53;;;18.60;99.90;;;;;;4997611;28;20565;-75
2022/09/01 04:36:40;;;;;;;9.03;8.23;;;18.50;99.90;;;;;;5013057;28;20441;-76
2022/09/01 04:39:11;;;;;;;9.50;8.60;;;18.50;99.90;;;;;;5016991;28;20527;-76
2022/09/01 04:41:44;;;;;;;8.57;7.30;;;18.50;99.90;;;;;;5016585;28;20851;-76
2022/09/01 04:44:11;;;;;;;9.30;8.47;;;18.50;99.90;;;;;;5020138;28;20446;-75
2022/09/01 04:46:41;;;;;;;9.73;8.17;;;18.40;99.90;;;;;;5011142;28;20438;-76
2022/09/01 04:49:09;;;;;;;10.23;9.27;;;18.40;99.90;;;;;;5012720;28;20809;-75
2022/09/01 04:51:40;;;;;;;10.87;9.40;;;18.40;99.90;;;;;;5011439;28;20472;-76
2022/09/01 04:54:09;;;;;;;10.17;9.10;;;18.30;99.90;;;;;;5012090;28;20485;-76
2022/09/01 04:56:36;;;;;;;10.30;8.57;;;18.30;99.90;;;;;;5012972;28;20509;-76
2022/09/01 04:59:05;;;;;;;10.43;8.73;;;18.30;99.90;;;;;;5013005;28;20436;-76
2022/09/01 05:01:41;;;;;;;9.33;8.43;;;18.30;99.90;;;;;;4999663;28;21146;-76
2022/09/01 05:04:08;;;;;;;9.70;8.70;;;18.30;99.90;;;;;;5012810;28;20989;-76
2022/09/01 05:06:38;;;;;;;10.33;9.07;;;18.30;99.90;;;;;;5009590;28;20431;-76
2022/09/01 05:09:04;;;;;;;12.47;9.60;;;18.30;99.90;;;;;;5014427;28;20952;-76
2022/09/01 05:11:31;;;;;;;9.93;9.03;;;18.30;99.90;;;;;;5012511;28;21208;-76
2022/09/01 05:13:57;;;;;;;12.13;9.67;;;18.30;99.90;;;;;;5013352;28;20971;-76
2022/09/01 05:16:26;;;;;;;13.47;9.43;;;18.30;99.90;;;;;;5011087;28;20449;-77
2022/09/01 05:18:54;;;;;;;10.90;9.90;;;18.30;99.90;;;;;;5011770;28;20185;-77
2022/09/01 05:21:23;;;;;;;10.17;9.17;;;18.30;99.90;;;;;;5011684;28;20471;-77
2022/09/01 05:23:50;;;;;;;9.90;8.97;;;18.30;99.90;;;;;;5012108;28;20455;-77
2022/09/01 05:26:30;;;;;;;9.73;8.83;;;18.30;99.90;;;;;;5011651;28;20916;-76
2022/09/01 05:28:58;;;;;;;12.83;9.53;;;18.30;99.90;;;;;;5020546;28;20471;-76
2022/09/01 05:31:27;;;;;;;12.13;10.03;;;18.30;99.90;;;;;;5020398;28;20946;-76
2022/09/01 05:33:54;;;;;;;13.83;10.90;;;18.40;99.90;;;;;;5015757;28;20553;-77
2022/09/01 05:36:22;;;;;;;12.43;10.50;;;18.30;99.90;;;;;;5017373;28;20497;-77
2022/09/01 05:38:49;;;;;;;12.70;11.50;;;18.30;99.90;;;;;;5017706;28;20471;-78
2022/09/01 05:41:19;;;;;;;14.23;12.73;;;18.40;99.90;;;;;;5015882;28;20454;-77
2022/09/01 05:43:48;;;;;;;12.93;11.63;;;18.40;99.90;;;;;;5014286;28;20477;-76
2022/09/01 05:46:17;;;;;;;12.37;11.13;;;18.40;99.90;;;;;;5013401;28;20656;-77
2022/09/01 05:48:44;;;;;;;14.20;12.80;;;18.50;99.90;;;;;;5016937;28;20439;-78
2022/09/01 05:51:16;;;;;;;11.80;10.67;;;18.50;99.90;;;;;;5011990;28;20435;-77
2022/09/01 05:53:43;;;;;;;12.70;11.50;;;18.50;99.90;;;;;;5016240;28;20451;-77
2022/09/01 05:56:12;;;;;;;16.00;11.90;;;18.50;99.90;;;;;;5017498;28;20432;-77
2022/09/01 05:58:39;;;;;;;14.67;13.17;;;18.50;99.90;;;;;;5017089;28;20438;-77
2022/09/01 06:01:05;;;;;;;14.20;12.57;;;18.60;99.90;;;;;;5016280;28;20451;-78
2022/09/01 06:03:32;;;;;;;14.10;12.60;;;18.60;99.90;;;;;;5020354;28;20497;-76
2022/09/01 06:06:04;;;;;;;13.63;12.30;;;18.60;99.90;;;;;;5014330;28;20490;-76
2022/09/01 06:08:30;;;;;;;15.67;12.60;;;18.60;99.90;;;;;;5014795;28;20435;-77
2022/09/01 06:10:55;;;;;;;13.90;12.47;;;18.70;99.90;;;;;;5011550;28;20514;-77
2022/09/01 06:13:21;;;;;;;13.63;12.27;;;18.70;99.90;;;;;;4995673;28;20200;-77
2022/09/01 06:15:48;;;;;;;13.17;11.97;;;18.70;99.90;;;;;;5015538;28;21140;-77
2022/09/01 06:18:16;;;;;;;14.33;12.43;;;18.80;99.90;;;;;;5009891;28;20176;-78
2022/09/01 06:20:43;;;;;;;13.80;12.47;;;18.80;99.90;;;;;;5009375;28;20466;-76
2022/09/01 06:23:13;;;;;;;13.90;12.43;;;18.80;99.90;;;;;;5011593;28;20439;-76
2022/09/01 06:25:39;;;;;;;16.80;13.47;;;18.90;99.90;;;;;;5014691;28;22093;-76
2022/09/01 06:28:07;;;;;;;14.40;12.90;;;18.90;99.90;;;;;;5015084;28;20768;-76
2022/09/01 06:30:35;;;;;;;14.93;13.37;;;18.90;99.90;;;;;;5019104;28;20875;-75
2022/09/01 06:33:04;;;;;;;14.90;13.37;;;19.00;99.90;;;;;;5014348;28;20462;-77
2022/09/01 06:35:31;;;;;;;13.10;11.83;;;19.00;99.90;;;;;;5015174;28;20501;-78
2022/09/01 06:37:57;;;;;;;14.50;13.00;;;19.10;99.90;;;;;;5014787;28;20443;-77
2022/09/01 06:40:24;;;;;;;13.00;11.70;;;19.10;99.90;;;;;;5012709;28;20443;-77
2022/09/01 06:42:51;;;;;;;13.30;11.90;;;19.10;99.90;;;;;;5017534;28;20477;-75
2022/09/01 06:45:20;;;;;;;12.50;11.30;;;19.10;99.90;;;;;;5009248;28;20463;-77
2022/09/01 06:47:49;;;;;;;15.30;12.10;;;19.20;99.90;;;;;;5017044;28;20469;-77
2022/09/01 06:50:18;;;;;;;14.07;12.57;;;19.20;99.90;;;;;;5016394;28;20453;-77
2022/09/01 06:52:44;;;;;;;14.03;12.70;;;19.30;99.90;;;;;;5015783;28;20443;-77
2022/09/01 06:55:11;;;;;;;14.60;13.10;;;19.30;99.90;;;;;;5011986;28;20439;-78
2022/09/01 06:57:38;;;;;;;18.17;15.47;;;19.40;99.90;;;;;;5020045;28;20443;-77
2022/09/01 07:00:16;;;;;;;16.67;14.93;;;19.40;99.90;;;;;;5013370;28;20442;-76
2022/09/01 07:02:44;;;;;;;14.83;13.33;;;19.50;99.90;;;;;;5015938;28;20454;-76
2022/09/01 07:05:10;;;;;;;15.23;13.70;;;19.50;99.90;;;;;;5007293;28;20439;-78
2022/09/01 07:07:36;;;;;;;14.53;12.90;;;19.60;99.90;;;;;;5014764;28;20446;-79
2022/09/01 07:10:03;;;;;;;16.50;11.50;;;19.60;99.90;;;;;;5016451;28;20934;-75
2022/09/01 07:12:30;;;;;;;15.00;13.40;;;19.70;99.90;;;;;;5016736;28;20196;-74
2022/09/01 07:14:58;;;;;;;14.23;12.83;;;19.70;99.90;;;;;;5013467;28;20472;-76
2022/09/01 07:17:24;;;;;;;14.17;12.80;;;19.70;99.90;;;;;;5013823;28;20457;-76
2022/09/01 07:19:49;;;;;;;13.73;12.33;;;19.70;99.90;;;;;;5016778;28;21075;-75
2022/09/01 07:22:15;;;;;;;14.60;13.10;;;19.70;99.90;;;;;;5012347;28;20467;-67
2022/09/01 07:24:41;;;;;;;13.37;12.00;;;19.80;99.90;;;;;;5012796;28;20681;-68
2022/09/01 07:27:08;;;;;;;13.30;11.90;;;19.80;99.90;;;;;;5009309;28;20215;-68
2022/09/01 07:29:34;;;;;;;13.70;12.40;;;19.90;99.90;;;;;;5012754;28;20197;-67
2022/09/01 07:32:00;;;;;;;15.93;13.70;;;19.90;99.90;;;;;;5014231;28;20443;-67
2022/09/01 07:34:26;;;;;;;13.80;12.50;;;19.90;99.90;;;;;;5001449;28;20478;-67
2022/09/01 07:36:55;;;;;;;12.97;11.67;;;20.00;99.90;;;;;;5013171;28;20813;-67
2022/09/01 07:39:21;;;;;;;17.50;15.60;;;20.00;99.90;;;;;;5015655;28;20596;-67
2022/09/01 07:41:47;;;;;;;15.30;13.57;;;20.10;99.90;;;;;;5012388;28;20782;-67
2022/09/01 07:44:13;;;;;;;13.67;12.10;;;20.10;99.90;;;;;;5018597;28;20277;-66
2022/09/01 07:46:40;;;;;;;12.77;11.27;;;20.10;99.90;;;;;;5018798;28;20593;-66
2022/09/01 07:49:07;;;;;;;12.63;11.33;;;20.20;99.90;;;;;;5017288;28;20435;-65
2022/09/01 07:51:33;;;;;;;13.20;11.90;;;20.20;99.90;;;;;;5013457;28;20452;-65
2022/09/01 07:54:01;;;;;;;12.60;11.40;;;20.20;99.90;;;;;;5014950;28;20470;-65
2022/09/01 07:56:29;;;;;;;14.70;13.17;;;20.30;99.90;;;;;;5013043;28;21886;-65
2022/09/01 07:58:54;;;;;;;14.30;12.70;;;20.30;99.90;;;;;;5017104;28;20543;-65
2022/09/01 08:01:24;;;;;;;12.73;11.50;;;20.30;99.90;;;;;;5015910;28;20573;-65
2022/09/01 08:03:57;;;;;;;12.00;10.80;;;20.40;99.90;;;;;;5015850;28;20470;-65
2022/09/01 08:06:25;;;;;;;12.13;10.93;;;20.40;99.90;;;;;;5017686;28;20439;-65
2022/09/01 08:08:53;;;;;;;12.33;11.03;;;20.40;99.90;;;;;;5016390;28;20581;-66
2022/09/01 08:11:27;;;;;;;12.40;11.20;;;20.40;99.90;;;;;;5009384;28;20439;-67
2022/09/01 08:13:57;;;;;;;11.20;9.47;;;20.50;99.90;;;;;;5013459;28;20442;-68
2022/09/01 08:16:23;;;;;;;10.97;9.27;;;20.60;99.90;;;;;;5017852;28;20541;-67
2022/09/01 08:18:49;;;;;;;11.20;9.70;;;20.60;99.90;;;;;;5000322;28;20535;-66
2022/09/01 08:21:17;;;;;;;14.83;11.40;;;20.60;99.90;;;;;;5014203;28;20211;-66
2022/09/01 08:23:42;;;;;;;9.80;8.80;;;20.60;99.90;;;;;;5013304;28;20454;-66
2022/09/01 08:26:12;;;;;;;11.23;9.73;;;20.70;99.90;;;;;;5009402;28;21227;-66
2022/09/01 08:28:39;;;;;;;12.00;10.40;;;20.80;99.90;;;;;;5013512;28;20271;-65
2022/09/01 08:31:09;;;;;;;10.70;9.50;;;20.80;99.90;;;;;;5014555;28;20529;-67
2022/09/01 08:33:36;;;;;;;11.80;10.37;;;20.90;99.90;;;;;;5017971;28;20488;-66
2022/09/01 08:36:03;;;;;;;10.60;9.50;;;21.00;99.90;;;;;;5016848;28;20500;-66
2022/09/01 08:38:28;;;;;;;9.67;8.70;;;21.00;99.90;;;;;;5015217;28;20502;-67
2022/09/01 08:40:57;;;;;;;10.17;9.27;;;21.00;99.90;;;;;;5017236;28;20549;-67
2022/09/01 08:43:48;;;;;;;10.23;9.23;;;21.00;99.90;;;;;;5018486;28;20205;-67
2022/09/01 08:46:37;;;;;;;10.10;8.73;;;21.10;99.90;;;;;;5016725;28;20960;-66
2022/09/01 08:49:13;;;;;;;9.30;8.40;;;21.20;99.90;;;;;;5020153;28;20581;-66
2022/09/01 08:51:45;;;;;;;10.63;8.40;;;21.30;99.90;;;;;;5014369;28;20453;-67
2022/09/01 08:54:40;;;;;;;9.47;8.57;;;21.40;99.90;;;;;;5017853;28;20823;-66
2022/09/01 08:57:15;;;;;;;9.13;8.23;;;21.40;99.90;;;;;;4962992;28;20450;-66
2022/09/01 08:59:40;;;;;;;8.13;7.43;;;21.40;99.90;;;;;;5016235;28;20502;-66
2022/09/01 09:02:37;;;;;;;9.33;8.33;;;21.50;99.90;;;;;;5023297;28;20561;-67
2022/09/01 09:05:07;;;;;;;9.03;7.90;;;21.60;99.90;;;;;;5018691;28;20619;-67
2022/09/01 09:08:04;;;;;;;8.37;7.53;;;21.60;99.90;;;;;;5019979;28;20468;-67
2022/09/01 09:11:03;;;;;;;7.20;6.50;;;21.70;99.90;;;;;;5023053;28;20494;-67
2022/09/01 09:13:44;;;;;;;7.87;7.17;;;21.80;99.90;;;;;;5000596;28;20975;-68
2022/09/01 09:16:22;;;;;;;8.57;6.83;;;22.00;99.90;;;;;;5020784;28;20423;-67
2022/09/01 09:19:01;;;;;;;9.00;7.67;;;22.10;99.90;;;;;;5016730;28;20534;-66
2022/09/01 09:21:32;;;;;;;7.67;6.90;;;22.30;99.90;;;;;;5018068;28;20949;-67
2022/09/01 09:24:18;;;;;;;6.93;6.13;;;22.40;99.90;;;;;;5016945;28;20617;-67
2022/09/01 09:26:55;;;;;;;6.20;5.60;;;22.50;99.90;;;;;;5016519;28;20792;-66
2022/09/01 09:29:21;;;;;;;5.57;4.90;;;22.60;99.90;;;;;;5016731;28;20431;-67
2022/09/01 09:31:48;;;;;;;6.03;5.53;;;22.70;99.90;;;;;;5018949;28;20430;-66
2022/09/01 09:34:26;;;;;;;6.70;6.10;;;22.80;99.90;;;;;;5013043;28;20205;-67
2022/09/01 09:36:52;;;;;;;6.73;6.10;;;22.90;99.90;;;;;;5017839;28;20859;-66
2022/09/01 09:39:18;;;;;;;6.63;6.03;;;23.00;99.90;;;;;;5015376;28;20445;-67
2022/09/01 09:42:04;;;;;;;6.80;6.20;;;23.10;99.90;;;;;;5020042;28;20462;-66
2022/09/01 09:44:31;;;;;;;7.77;6.47;;;23.30;99.90;;;;;;5019476;28;20211;-67
2022/09/01 09:46:58;;;;;;;9.03;8.13;;;23.30;99.90;;;;;;5017763;28;20443;-66
2022/09/01 09:49:27;;;;;;;8.80;7.00;;;23.50;99.90;;;;;;5017022;28;20435;-67
2022/09/01 09:51:56;;;;;;;7.93;7.13;;;23.60;99.90;;;;;;5020135;28;20548;-66
2022/09/01 09:54:26;;;;;;;6.47;5.87;;;23.80;99.90;;;;;;5017388;28;20459;-67
2022/09/01 09:57:07;;;;;;;5.77;5.20;;;23.90;99.90;;;;;;5018280;28;20548;-67
2022/09/01 09:59:38;;;;;;;16.30;5.93;;;24.00;99.90;;;;;;5018176;28;20413;-67
2022/09/01 10:02:30;;;;;;;5.37;4.87;;;24.00;99.90;;;;;;5017650;28;20774;-67
2022/09/01 10:04:57;;;;;;;5.83;5.33;;;24.10;99.90;;;;;;5018778;28;20532;-67
2022/09/01 10:07:23;;;;;;;5.77;5.27;;;24.20;99.90;;;;;;5016875;28;20513;-67
2022/09/01 10:09:49;;;;;;;7.10;5.40;;;24.20;99.90;;;;;;5018910;28;20451;-67
2022/09/01 10:12:16;;;;;;;8.60;5.80;;;24.20;99.90;;;;;;5018312;28;20200;-67
2022/09/01 10:14:49;;;;;;;7.80;5.93;;;24.30;99.90;;;;;;5022729;28;20467;-68
2022/09/01 10:17:19;;;;;;;6.77;6.07;;;24.40;99.90;;;;;;5014842;28;20876;-68
2022/09/01 10:19:56;;;;;;;7.00;6.30;;;24.50;99.90;;;;;;5020140;28;20431;-68
2022/09/01 10:22:23;;;;;;;6.60;6.10;;;24.60;99.90;;;;;;5018055;28;20474;-68
2022/09/01 10:24:49;;;;;;;7.70;6.47;;;24.60;99.90;;;;;;5021848;28;20431;-67
2022/09/01 10:27:23;;;;;;;7.37;6.70;;;24.70;99.90;;;;;;5020281;28;20411;-67
2022/09/01 10:29:55;;;;;;;7.60;6.40;;;24.70;99.90;;;;;;5018423;28;20185;-67
2022/09/01 10:32:27;;;;;;;7.70;6.10;;;24.70;99.90;;;;;;5021681;28;20419;-67
2022/09/01 10:34:53;;;;;;;7.20;6.07;;;24.90;99.90;;;;;;5022034;28;20419;-67
2022/09/01 10:37:19;;;;;;;6.30;5.70;;;24.90;99.90;;;;;;5006533;28;20446;-67
2022/09/01 10:40:09;;;;;;;6.40;5.80;;;25.00;99.90;;;;;;5018734;28;20856;-67
2022/09/01 10:42:35;;;;;;;5.57;5.07;;;25.20;99.90;;;;;;5015671;28;20205;-67
2022/09/01 10:45:01;;;;;;;7.07;6.47;;;25.20;99.90;;;;;;5017102;28;20450;-66
2022/09/01 10:47:32;;;;;;;5.70;4.83;;;25.20;99.90;;;;;;5018749;28;20187;-67
2022/09/01 10:49:58;;;;;;;7.70;6.37;;;25.20;99.90;;;;;;5022188;28;20510;-68
2022/09/01 10:52:42;;;;;;;6.80;5.70;;;25.20;99.90;;;;;;5015381;28;20482;-67
2022/09/01 10:55:31;;;;;;;6.47;5.77;;;25.30;99.90;;;;;;5017960;28;20226;-67
2022/09/01 10:58:08;;;;;;;6.43;5.87;;;25.40;99.90;;;;;;4988912;28;20481;-66
2022/09/01 11:00:39;;;;;;;5.87;5.37;;;25.60;99.90;;;;;;5021079;28;20435;-67
2022/09/01 11:03:10;;;;;;;5.80;5.30;;;25.70;99.90;;;;;;5018358;28;20459;-67
2022/09/01 11:05:57;;;;;;;7.20;5.63;;;25.90;99.90;;;;;;5016115;28;20724;-67
2022/09/01 11:08:43;;;;;;;6.00;5.50;;;26.00;99.90;;;;;;5020296;28;20426;-67
2022/09/01 11:11:39;;;;;;;5.97;5.37;;;26.00;99.90;;;;;;5018763;28;20497;-67
2022/09/01 11:14:16;;;;;;;6.80;5.67;;;26.00;99.90;;;;;;4989116;28;20832;-66
2022/09/01 11:16:42;;;;;;;6.17;5.57;;;26.00;99.90;;;;;;5024219;28;20431;-67
2022/09/01 11:19:38;;;;;;;6.80;5.27;;;26.10;99.90;;;;;;5015985;28;20442;-67
2022/09/01 11:22:09;;;;;;;5.90;5.30;;;26.10;99.90;;;;;;5018274;28;20587;-67
2022/09/01 11:24:40;;;;;;;5.87;5.37;;;26.20;99.90;;;;;;5021027;28;20863;-67
2022/09/01 11:27:11;;;;;;;6.37;5.77;;;26.30;99.90;;;;;;5017227;28;20765;-67
2022/09/01 11:30:09;;;;;;;6.20;5.70;;;26.40;99.90;;;;;;5021275;28;20787;-67
2022/09/01 11:32:37;;;;;;;6.83;6.00;;;26.60;99.90;;;;;;5007812;28;20756;-67
2022/09/01 11:35:12;;;;;;;6.00;5.50;;;26.70;99.90;;;;;;5018809;28;20466;-67
2022/09/01 11:37:39;;;;;;;6.00;5.50;;;26.80;99.90;;;;;;5018513;28;20700;-67
2022/09/01 11:40:09;;;;;;;5.90;5.13;;;26.90;99.90;;;;;;5017390;28;20435;-66
2022/09/01 11:42:43;;;;;;;6.97;6.30;;;26.90;99.90;;;;;;5021630;28;20463;-67
2022/09/01 11:45:27;;;;;;;6.70;5.73;;;27.00;99.90;;;;;;5016552;28;20420;-67
2022/09/01 11:47:58;;;;;;;5.87;5.27;;;27.10;99.90;;;;;;5017212;28;20415;-67
2022/09/01 11:50:56;;;;;;;6.43;5.77;;;27.20;99.90;;;;;;5017641;28;20814;-66
2022/09/01 11:53:23;;;;;;;6.67;6.07;;;27.30;99.90;;;;;;5017306;28;20479;-67
2022/09/01 11:55:51;;;;;;;6.70;6.10;;;27.50;99.90;;;;;;5019703;28;20415;-67
2022/09/01 11:58:30;;;;;;;6.27;5.67;;;27.70;99.90;;;;;;5023916;28;20433;-67
2022/09/01 12:01:10;;;;;;;7.33;5.70;;;27.70;99.90;;;;;;5022716;28;21032;-66
2022/09/01 12:03:36;;;;;;;5.90;5.40;;;27.60;99.90;;;;;;5022643;28;20558;-67
2022/09/01 12:06:06;;;;;;;6.30;5.80;;;27.50;99.90;;;;;;5016105;28;20990;-67
2022/09/01 12:08:38;;;;;;;6.37;5.80;;;27.50;99.90;;;;;;5009552;28;20468;-67
2022/09/01 12:11:10;;;;;;;5.90;5.40;;;27.70;99.90;;;;;;5020420;28;20508;-67
2022/09/01 12:13:37;;;;;;;6.00;5.50;;;27.60;99.90;;;;;;5017942;28;20469;-67
2022/09/01 12:16:06;;;;;;;5.93;5.43;;;28.20;99.90;;;;;;5015819;28;20430;-67
2022/09/01 12:18:43;;;;;;;5.90;5.40;;;28.80;99.90;;;;;;5021966;28;20515;-67
2022/09/01 12:21:29;;;;;;;5.87;5.37;;;29.40;99.00;;;;;;5018444;28;20495;-67
2022/09/01 12:24:17;;;;;;;6.43;5.87;;;29.90;97.60;;;;;;5016482;28;20454;-67
2022/09/01 12:26:43;;;;;;;6.47;5.87;;;30.50;96.10;;;;;;5020495;28;20478;-67
2022/09/01 12:29:12;;;;;;;5.77;5.37;;;30.90;95.10;;;;;;5016294;28;20431;-67
2022/09/01 12:31:42;;;;;;;5.33;4.83;;;31.20;92.70;;;;;;5021828;28;20440;-67
2022/09/01 12:34:31;;;;;;;7.03;4.90;;;31.30;90.90;;;;;;5018146;28;20432;-67
2022/09/01 12:37:15;;;;;;;5.73;5.10;;;31.30;90.40;;;;;;5015905;28;20463;-67
2022/09/01 12:39:50;;;;;;;7.80;6.20;;;31.40;87.80;;;;;;5020698;28;20443;-67
2022/09/01 12:42:18;;;;;;;10.17;5.20;;;31.80;85.50;;;;;;5015972;28;20466;-69
2022/09/01 12:44:50;;;;;;;5.33;4.60;;;32.00;80.50;;;;;;5018869;28;20800;-67
2022/09/01 12:47:46;;;;;;;4.87;4.50;;;32.10;79.90;;;;;;5020144;28;20462;-67
2022/09/01 12:50:14;;;;;;;4.93;4.53;;;32.50;76.80;;;;;;5012547;28;20470;-67
2022/09/01 12:52:57;;;;;;;4.60;4.20;;;32.80;75.30;;;;;;5017533;28;20447;-68
2022/09/01 12:55:34;;;;;;;4.80;4.40;;;33.10;73.80;;;;;;5016659;28;20962;-68
2022/09/01 12:58:03;;;;;;;5.27;4.20;;;33.00;69.70;;;;;;5017084;28;20842;-68
2022/09/01 13:00:35;;;;;;;4.40;4.10;;;32.70;69.90;;;;;;5017222;28;20439;-70
2022/09/01 13:03:06;;;;;;;5.83;5.33;;;32.90;70.20;;;;;;5017037;28;20777;-70
2022/09/01 13:05:34;;;;;;;5.90;5.40;;;33.00;68.60;;;;;;5016302;28;20398;-71